Terminal Aerodrome Forecast
Issued by NWS

Home | Current Version | Previous Version | Text Only | Print | Product List | Glossary On
Versions: 1 2 3 4 5 6 7 8 9 10 11 12 13
000
FTUS45 KABQ 071729
TAFTCC
TAF
KTCC 071729Z 0718/0818 05017G25KT P6SM BKN250
     FM080100 06013KT P6SM BKN200
     FM080600 06011KT P6SM OVC035
     FM081000 08007KT P6SM OVC025
     FM081600 10006KT P6SM OVC035=

USA.gov is the U.S. government's official web portal to all federal, state and local government web resources and services.